sensor_id;sensor_type;location;lat;lon;timestamp;P1;durP1;ratioP1;P2;durP2;ratioP2
4756;SDS011;2392;52.578;13.426;2023-12-07T00:01:18;35.13;;;16.47;;
4756;SDS011;2392;52.578;13.426;2023-12-07T00:03:45;34.60;;;15.93;;
4756;SDS011;2392;52.578;13.426;2023-12-07T00:06:11;41.30;;;16.70;;
4756;SDS011;2392;52.578;13.426;2023-12-07T00:08:39;36.23;;;16.87;;
4756;SDS011;2392;52.578;13.426;2023-12-07T00:11:06;36.33;;;17.80;;
4756;SDS011;2392;52.578;13.426;2023-12-07T00:13:32;36.77;;;17.60;;
4756;SDS011;2392;52.578;13.426;2023-12-07T00:15:59;37.93;;;16.17;;
4756;SDS011;2392;52.578;13.426;2023-12-07T00:18:27;36.37;;;17.17;;
4756;SDS011;2392;52.578;13.426;2023-12-07T00:20:53;37.00;;;16.20;;
4756;SDS011;2392;52.578;13.426;2023-12-07T00:23:20;34.83;;;16.73;;
4756;SDS011;2392;52.578;13.426;2023-12-07T00:25:48;36.57;;;16.70;;
4756;SDS011;2392;52.578;13.426;2023-12-07T00:28:15;35.40;;;16.40;;
4756;SDS011;2392;52.578;13.426;2023-12-07T00:30:41;34.10;;;15.80;;
4756;SDS011;2392;52.578;13.426;2023-12-07T00:33:08;35.20;;;16.50;;
4756;SDS011;2392;52.578;13.426;2023-12-07T00:35:35;35.03;;;17.23;;
4756;SDS011;2392;52.578;13.426;2023-12-07T00:38:02;36.67;;;16.67;;
4756;SDS011;2392;52.578;13.426;2023-12-07T00:40:28;37.50;;;16.43;;
4756;SDS011;2392;52.578;13.426;2023-12-07T00:42:56;37.40;;;16.80;;
4756;SDS011;2392;52.578;13.426;2023-12-07T00:45:24;36.33;;;15.80;;
4756;SDS011;2392;52.578;13.426;2023-12-07T00:47:50;37.77;;;17.40;;
4756;SDS011;2392;52.578;13.426;2023-12-07T00:50:17;37.07;;;16.10;;
4756;SDS011;2392;52.578;13.426;2023-12-07T00:52:43;34.33;;;16.20;;
4756;SDS011;2392;52.578;13.426;2023-12-07T00:55:10;35.30;;;15.53;;
4756;SDS011;2392;52.578;13.426;2023-12-07T00:57:37;34.37;;;15.90;;
4756;SDS011;2392;52.578;13.426;2023-12-07T01:00:05;34.40;;;16.63;;
4756;SDS011;2392;52.578;13.426;2023-12-07T01:02:33;37.90;;;16.90;;
4756;SDS011;2392;52.578;13.426;2023-12-07T01:04:59;35.90;;;16.80;;
4756;SDS011;2392;52.578;13.426;2023-12-07T01:07:26;37.30;;;16.67;;
4756;SDS011;2392;52.578;13.426;2023-12-07T01:09:53;35.67;;;16.37;;
4756;SDS011;2392;52.578;13.426;2023-12-07T01:12:19;42.13;;;17.60;;
4756;SDS011;2392;52.578;13.426;2023-12-07T01:14:46;38.13;;;17.43;;
4756;SDS011;2392;52.578;13.426;2023-12-07T01:17:14;34.70;;;15.57;;
4756;SDS011;2392;52.578;13.426;2023-12-07T01:19:40;34.23;;;15.93;;
4756;SDS011;2392;52.578;13.426;2023-12-07T01:22:07;37.47;;;17.00;;
4756;SDS011;2392;52.578;13.426;2023-12-07T01:24:33;35.57;;;16.77;;
4756;SDS011;2392;52.578;13.426;2023-12-07T01:27:00;34.67;;;16.43;;
4756;SDS011;2392;52.578;13.426;2023-12-07T01:29:27;38.03;;;17.33;;
4756;SDS011;2392;52.578;13.426;2023-12-07T01:31:53;40.27;;;17.37;;
4756;SDS011;2392;52.578;13.426;2023-12-07T01:34:21;34.93;;;17.40;;
4756;SDS011;2392;52.578;13.426;2023-12-07T01:36:48;36.50;;;15.83;;
4756;SDS011;2392;52.578;13.426;2023-12-07T01:39:15;38.80;;;19.57;;
4756;SDS011;2392;52.578;13.426;2023-12-07T01:41:41;37.53;;;17.37;;
4756;SDS011;2392;52.578;13.426;2023-12-07T01:44:08;35.17;;;16.80;;
4756;SDS011;2392;52.578;13.426;2023-12-07T01:46:34;37.23;;;17.27;;
4756;SDS011;2392;52.578;13.426;2023-12-07T01:49:02;46.33;;;20.27;;
4756;SDS011;2392;52.578;13.426;2023-12-07T01:51:30;38.20;;;18.00;;
4756;SDS011;2392;52.578;13.426;2023-12-07T01:53:57;39.57;;;18.67;;
4756;SDS011;2392;52.578;13.426;2023-12-07T01:56:24;39.43;;;17.63;;
4756;SDS011;2392;52.578;13.426;2023-12-07T01:58:52;39.27;;;17.40;;
4756;SDS011;2392;52.578;13.426;2023-12-07T02:01:18;39.33;;;19.10;;
4756;SDS011;2392;52.578;13.426;2023-12-07T02:03:45;37.50;;;17.10;;
4756;SDS011;2392;52.578;13.426;2023-12-07T02:06:11;36.40;;;17.17;;
4756;SDS011;2392;52.578;13.426;2023-12-07T02:08:40;37.60;;;17.27;;
4756;SDS011;2392;52.578;13.426;2023-12-07T02:11:07;36.23;;;17.07;;
4756;SDS011;2392;52.578;13.426;2023-12-07T02:13:34;37.07;;;16.87;;
4756;SDS011;2392;52.578;13.426;2023-12-07T02:16:01;30.67;;;14.50;;
4756;SDS011;2392;52.578;13.426;2023-12-07T02:18:35;36.40;;;16.10;;
4756;SDS011;2392;52.578;13.426;2023-12-07T02:21:08;36.00;;;16.30;;
4756;SDS011;2392;52.578;13.426;2023-12-07T02:23:41;37.63;;;17.00;;
4756;SDS011;2392;52.578;13.426;2023-12-07T02:26:08;37.40;;;17.70;;
4756;SDS011;2392;52.578;13.426;2023-12-07T02:28:37;37.57;;;18.57;;
4756;SDS011;2392;52.578;13.426;2023-12-07T02:31:04;37.40;;;16.63;;
4756;SDS011;2392;52.578;13.426;2023-12-07T02:33:31;37.27;;;17.00;;
4756;SDS011;2392;52.578;13.426;2023-12-07T02:35:57;39.17;;;17.50;;
4756;SDS011;2392;52.578;13.426;2023-12-07T02:38:25;36.40;;;16.83;;
4756;SDS011;2392;52.578;13.426;2023-12-07T02:40:54;34.80;;;17.13;;
4756;SDS011;2392;52.578;13.426;2023-12-07T02:43:22;36.43;;;18.37;;
4756;SDS011;2392;52.578;13.426;2023-12-07T02:45:50;38.17;;;16.87;;
4756;SDS011;2392;52.578;13.426;2023-12-07T02:48:17;36.57;;;17.47;;
4756;SDS011;2392;52.578;13.426;2023-12-07T02:50:43;37.97;;;16.90;;
4756;SDS011;2392;52.578;13.426;2023-12-07T02:53:10;38.60;;;17.80;;
4756;SDS011;2392;52.578;13.426;2023-12-07T02:55:37;40.90;;;18.50;;
4756;SDS011;2392;52.578;13.426;2023-12-07T02:58:03;36.83;;;16.50;;
4756;SDS011;2392;52.578;13.426;2023-12-07T03:00:31;35.40;;;16.50;;
4756;SDS011;2392;52.578;13.426;2023-12-07T03:02:59;37.23;;;17.40;;
4756;SDS011;2392;52.578;13.426;2023-12-07T03:05:26;35.00;;;15.80;;
4756;SDS011;2392;52.578;13.426;2023-12-07T03:07:52;36.40;;;16.63;;
4756;SDS011;2392;52.578;13.426;2023-12-07T03:10:19;34.50;;;15.40;;
4756;SDS011;2392;52.578;13.426;2023-12-07T03:12:46;35.50;;;15.83;;
4756;SDS011;2392;52.578;13.426;2023-12-07T03:15:12;33.87;;;15.93;;
4756;SDS011;2392;52.578;13.426;2023-12-07T03:17:39;35.00;;;16.93;;
4756;SDS011;2392;52.578;13.426;2023-12-07T03:20:07;35.47;;;16.07;;
4756;SDS011;2392;52.578;13.426;2023-12-07T03:22:35;38.40;;;16.50;;
4756;SDS011;2392;52.578;13.426;2023-12-07T03:25:02;42.53;;;17.00;;
4756;SDS011;2392;52.578;13.426;2023-12-07T03:27:28;35.40;;;16.77;;
4756;SDS011;2392;52.578;13.426;2023-12-07T03:29:56;35.57;;;15.83;;
4756;SDS011;2392;52.578;13.426;2023-12-07T03:32:22;34.27;;;16.50;;
4756;SDS011;2392;52.578;13.426;2023-12-07T03:34:49;35.77;;;15.57;;
4756;SDS011;2392;52.578;13.426;2023-12-07T03:37:17;37.73;;;16.40;;
4756;SDS011;2392;52.578;13.426;2023-12-07T03:39:43;32.27;;;15.00;;
4756;SDS011;2392;52.578;13.426;2023-12-07T03:42:10;35.27;;;16.53;;
4756;SDS011;2392;52.578;13.426;2023-12-07T03:44:37;33.50;;;15.17;;
4756;SDS011;2392;52.578;13.426;2023-12-07T03:47:04;35.17;;;16.70;;
4756;SDS011;2392;52.578;13.426;2023-12-07T03:49:30;37.80;;;17.70;;
4756;SDS011;2392;52.578;13.426;2023-12-07T03:51:57;38.00;;;18.20;;
4756;SDS011;2392;52.578;13.426;2023-12-07T03:54:25;39.30;;;17.03;;
4756;SDS011;2392;52.578;13.426;2023-12-07T03:56:52;43.67;;;18.70;;
4756;SDS011;2392;52.578;13.426;2023-12-07T03:59:18;44.70;;;18.97;;
4756;SDS011;2392;52.578;13.426;2023-12-07T04:01:45;46.37;;;18.87;;
4756;SDS011;2392;52.578;13.426;2023-12-07T04:04:12;45.40;;;19.50;;
4756;SDS011;2392;52.578;13.426;2023-12-07T04:06:38;41.60;;;19.40;;
4756;SDS011;2392;52.578;13.426;2023-12-07T04:09:05;48.93;;;21.70;;
4756;SDS011;2392;52.578;13.426;2023-12-07T04:11:33;42.83;;;19.27;;
4756;SDS011;2392;52.578;13.426;2023-12-07T04:14:00;44.70;;;19.37;;
4756;SDS011;2392;52.578;13.426;2023-12-07T04:16:27;41.93;;;18.37;;
4756;SDS011;2392;52.578;13.426;2023-12-07T04:18:54;47.60;;;20.10;;
4756;SDS011;2392;52.578;13.426;2023-12-07T04:21:20;42.67;;;19.33;;
4756;SDS011;2392;52.578;13.426;2023-12-07T04:23:47;42.60;;;19.30;;
4756;SDS011;2392;52.578;13.426;2023-12-07T04:26:14;49.60;;;18.20;;
4756;SDS011;2392;52.578;13.426;2023-12-07T04:28:42;46.23;;;20.07;;
4756;SDS011;2392;52.578;13.426;2023-12-07T04:31:08;44.53;;;20.70;;
4756;SDS011;2392;52.578;13.426;2023-12-07T04:33:35;41.23;;;17.53;;
4756;SDS011;2392;52.578;13.426;2023-12-07T04:36:02;48.37;;;19.20;;
4756;SDS011;2392;52.578;13.426;2023-12-07T04:38:29;41.77;;;18.23;;
4756;SDS011;2392;52.578;13.426;2023-12-07T04:40:57;41.70;;;18.70;;
4756;SDS011;2392;52.578;13.426;2023-12-07T04:43:24;44.10;;;19.13;;
4756;SDS011;2392;52.578;13.426;2023-12-07T04:45:51;38.10;;;17.90;;
4756;SDS011;2392;52.578;13.426;2023-12-07T04:48:18;45.80;;;19.37;;
4756;SDS011;2392;52.578;13.426;2023-12-07T04:50:45;37.40;;;16.93;;
4756;SDS011;2392;52.578;13.426;2023-12-07T04:53:11;43.13;;;18.87;;
4756;SDS011;2392;52.578;13.426;2023-12-07T04:55:38;43.10;;;19.83;;
4756;SDS011;2392;52.578;13.426;2023-12-07T04:58:05;45.73;;;19.63;;
4756;SDS011;2392;52.578;13.426;2023-12-07T05:00:32;50.37;;;20.30;;
4756;SDS011;2392;52.578;13.426;2023-12-07T05:03:00;46.83;;;19.27;;
4756;SDS011;2392;52.578;13.426;2023-12-07T05:05:26;43.97;;;19.77;;
4756;SDS011;2392;52.578;13.426;2023-12-07T05:07:53;45.40;;;18.93;;
4756;SDS011;2392;52.578;13.426;2023-12-07T05:10:20;46.00;;;19.87;;
4756;SDS011;2392;52.578;13.426;2023-12-07T05:12:47;45.13;;;19.97;;
4756;SDS011;2392;52.578;13.426;2023-12-07T05:15:13;46.27;;;18.87;;
4756;SDS011;2392;52.578;13.426;2023-12-07T05:17:40;42.57;;;17.53;;
4756;SDS011;2392;52.578;13.426;2023-12-07T05:20:08;41.60;;;18.30;;
4756;SDS011;2392;52.578;13.426;2023-12-07T05:22:37;46.53;;;19.00;;
4756;SDS011;2392;52.578;13.426;2023-12-07T05:25:04;40.93;;;18.63;;
4756;SDS011;2392;52.578;13.426;2023-12-07T05:27:31;40.80;;;18.67;;
4756;SDS011;2392;52.578;13.426;2023-12-07T05:29:58;42.50;;;18.57;;
4756;SDS011;2392;52.578;13.426;2023-12-07T05:32:24;44.13;;;18.40;;
4756;SDS011;2392;52.578;13.426;2023-12-07T05:34:51;45.17;;;18.90;;
4756;SDS011;2392;52.578;13.426;2023-12-07T05:37:19;43.40;;;18.63;;
4756;SDS011;2392;52.578;13.426;2023-12-07T05:39:45;49.80;;;19.80;;
4756;SDS011;2392;52.578;13.426;2023-12-07T05:42:12;45.40;;;19.47;;
4756;SDS011;2392;52.578;13.426;2023-12-07T05:44:39;42.83;;;18.20;;
4756;SDS011;2392;52.578;13.426;2023-12-07T05:47:05;43.27;;;17.80;;
4756;SDS011;2392;52.578;13.426;2023-12-07T05:49:33;42.47;;;17.60;;
4756;SDS011;2392;52.578;13.426;2023-12-07T05:51:59;41.17;;;17.70;;
4756;SDS011;2392;52.578;13.426;2023-12-07T05:54:28;43.30;;;18.57;;
4756;SDS011;2392;52.578;13.426;2023-12-07T05:56:55;45.33;;;18.33;;
4756;SDS011;2392;52.578;13.426;2023-12-07T05:59:21;45.43;;;19.40;;
4756;SDS011;2392;52.578;13.426;2023-12-07T06:01:51;42.40;;;19.10;;
4756;SDS011;2392;52.578;13.426;2023-12-07T06:04:18;43.63;;;18.40;;
4756;SDS011;2392;52.578;13.426;2023-12-07T06:06:45;49.20;;;19.27;;
4756;SDS011;2392;52.578;13.426;2023-12-07T06:09:11;41.73;;;18.23;;
4756;SDS011;2392;52.578;13.426;2023-12-07T06:11:40;39.10;;;17.43;;
4756;SDS011;2392;52.578;13.426;2023-12-07T06:14:07;40.40;;;16.47;;
4756;SDS011;2392;52.578;13.426;2023-12-07T06:16:33;39.53;;;16.07;;
4756;SDS011;2392;52.578;13.426;2023-12-07T06:19:00;43.23;;;18.90;;
4756;SDS011;2392;52.578;13.426;2023-12-07T06:21:27;41.57;;;16.40;;
4756;SDS011;2392;52.578;13.426;2023-12-07T06:23:55;37.57;;;16.67;;
4756;SDS011;2392;52.578;13.426;2023-12-07T06:26:22;42.10;;;18.00;;
4756;SDS011;2392;52.578;13.426;2023-12-07T06:28:50;46.93;;;18.10;;
4756;SDS011;2392;52.578;13.426;2023-12-07T06:31:17;43.17;;;18.30;;
4756;SDS011;2392;52.578;13.426;2023-12-07T06:33:46;42.63;;;17.53;;
4756;SDS011;2392;52.578;13.426;2023-12-07T06:36:17;40.70;;;17.07;;
4756;SDS011;2392;52.578;13.426;2023-12-07T06:38:44;41.20;;;16.77;;
4756;SDS011;2392;52.578;13.426;2023-12-07T06:41:11;41.27;;;17.03;;
4756;SDS011;2392;52.578;13.426;2023-12-07T06:43:37;40.77;;;17.73;;
4756;SDS011;2392;52.578;13.426;2023-12-07T06:46:05;40.30;;;18.33;;
4756;SDS011;2392;52.578;13.426;2023-12-07T06:48:33;42.40;;;16.90;;
4756;SDS011;2392;52.578;13.426;2023-12-07T06:51:00;41.53;;;16.97;;
4756;SDS011;2392;52.578;13.426;2023-12-07T06:53:27;41.60;;;18.77;;
4756;SDS011;2392;52.578;13.426;2023-12-07T06:55:54;43.90;;;17.70;;
4756;SDS011;2392;52.578;13.426;2023-12-07T06:58:20;38.77;;;17.50;;
4756;SDS011;2392;52.578;13.426;2023-12-07T07:00:47;38.17;;;16.73;;
4756;SDS011;2392;52.578;13.426;2023-12-07T07:03:16;38.53;;;16.33;;
4756;SDS011;2392;52.578;13.426;2023-12-07T07:05:42;41.00;;;18.33;;
4756;SDS011;2392;52.578;13.426;2023-12-07T07:08:09;40.20;;;15.97;;
4756;SDS011;2392;52.578;13.426;2023-12-07T07:10:36;40.17;;;17.40;;
4756;SDS011;2392;52.578;13.426;2023-12-07T07:13:02;39.77;;;16.27;;
4756;SDS011;2392;52.578;13.426;2023-12-07T07:15:29;35.63;;;16.17;;
4756;SDS011;2392;52.578;13.426;2023-12-07T07:17:56;39.30;;;17.80;;
4756;SDS011;2392;52.578;13.426;2023-12-07T07:20:25;37.60;;;15.60;;
4756;SDS011;2392;52.578;13.426;2023-12-07T07:22:52;38.70;;;15.30;;
4756;SDS011;2392;52.578;13.426;2023-12-07T07:25:18;40.80;;;17.77;;
4756;SDS011;2392;52.578;13.426;2023-12-07T07:27:45;38.43;;;16.83;;
4756;SDS011;2392;52.578;13.426;2023-12-07T07:30:12;44.43;;;19.33;;
4756;SDS011;2392;52.578;13.426;2023-12-07T07:32:39;40.43;;;17.87;;
4756;SDS011;2392;52.578;13.426;2023-12-07T07:35:06;41.13;;;18.50;;
4756;SDS011;2392;52.578;13.426;2023-12-07T07:37:38;40.27;;;16.90;;
4756;SDS011;2392;52.578;13.426;2023-12-07T07:40:05;41.10;;;17.10;;
4756;SDS011;2392;52.578;13.426;2023-12-07T07:42:32;43.93;;;17.87;;
4756;SDS011;2392;52.578;13.426;2023-12-07T07:44:59;40.00;;;18.27;;
4756;SDS011;2392;52.578;13.426;2023-12-07T07:47:26;42.57;;;18.57;;
4756;SDS011;2392;52.578;13.426;2023-12-07T07:49:52;42.13;;;18.90;;
4756;SDS011;2392;52.578;13.426;2023-12-07T07:52:19;39.77;;;17.40;;
4756;SDS011;2392;52.578;13.426;2023-12-07T07:54:47;47.03;;;18.60;;
4756;SDS011;2392;52.578;13.426;2023-12-07T07:57:14;45.50;;;18.27;;
4756;SDS011;2392;52.578;13.426;2023-12-07T07:59:40;43.83;;;17.60;;
4756;SDS011;2392;52.578;13.426;2023-12-07T08:02:07;40.00;;;17.60;;
4756;SDS011;2392;52.578;13.426;2023-12-07T08:04:34;43.63;;;18.30;;
4756;SDS011;2392;52.578;13.426;2023-12-07T08:07:01;44.87;;;17.80;;
4756;SDS011;2392;52.578;13.426;2023-12-07T08:09:27;43.10;;;16.90;;
4756;SDS011;2392;52.578;13.426;2023-12-07T08:11:55;44.80;;;18.57;;
4756;SDS011;2392;52.578;13.426;2023-12-07T08:14:22;46.00;;;18.93;;
4756;SDS011;2392;52.578;13.426;2023-12-07T08:16:49;48.07;;;19.83;;
4756;SDS011;2392;52.578;13.426;2023-12-07T08:19:15;40.93;;;16.90;;
4756;SDS011;2392;52.578;13.426;2023-12-07T08:21:42;42.60;;;17.83;;
4756;SDS011;2392;52.578;13.426;2023-12-07T08:24:09;43.50;;;20.30;;
4756;SDS011;2392;52.578;13.426;2023-12-07T08:26:38;44.47;;;19.00;;
4756;SDS011;2392;52.578;13.426;2023-12-07T08:29:06;42.60;;;17.50;;
4756;SDS011;2392;52.578;13.426;2023-12-07T08:31:32;44.27;;;17.87;;
4756;SDS011;2392;52.578;13.426;2023-12-07T08:33:59;43.47;;;18.33;;
4756;SDS011;2392;52.578;13.426;2023-12-07T08:36:26;44.17;;;17.63;;
4756;SDS011;2392;52.578;13.426;2023-12-07T08:38:53;46.23;;;17.97;;
4756;SDS011;2392;52.578;13.426;2023-12-07T08:41:20;41.93;;;18.93;;
4756;SDS011;2392;52.578;13.426;2023-12-07T08:43:46;46.63;;;19.87;;
4756;SDS011;2392;52.578;13.426;2023-12-07T08:46:14;42.17;;;18.37;;
4756;SDS011;2392;52.578;13.426;2023-12-07T08:48:41;44.70;;;19.10;;
4756;SDS011;2392;52.578;13.426;2023-12-07T08:51:08;47.57;;;18.37;;
4756;SDS011;2392;52.578;13.426;2023-12-07T08:53:34;46.73;;;21.47;;
4756;SDS011;2392;52.578;13.426;2023-12-07T08:56:01;44.93;;;19.20;;
4756;SDS011;2392;52.578;13.426;2023-12-07T08:58:28;48.57;;;20.97;;
4756;SDS011;2392;52.578;13.426;2023-12-07T09:00:55;46.13;;;21.07;;
4756;SDS011;2392;52.578;13.426;2023-12-07T09:03:23;47.70;;;20.03;;
4756;SDS011;2392;52.578;13.426;2023-12-07T09:05:52;46.50;;;20.57;;
4756;SDS011;2392;52.578;13.426;2023-12-07T09:08:19;51.03;;;21.30;;
4756;SDS011;2392;52.578;13.426;2023-12-07T09:10:45;52.37;;;22.20;;
4756;SDS011;2392;52.578;13.426;2023-12-07T09:13:14;48.70;;;19.87;;
4756;SDS011;2392;52.578;13.426;2023-12-07T09:15:41;47.97;;;19.30;;
4756;SDS011;2392;52.578;13.426;2023-12-07T09:18:08;51.20;;;19.87;;
4756;SDS011;2392;52.578;13.426;2023-12-07T09:20:37;51.37;;;21.43;;
4756;SDS011;2392;52.578;13.426;2023-12-07T09:23:10;42.80;;;19.53;;
4756;SDS011;2392;52.578;13.426;2023-12-07T09:25:37;48.17;;;20.07;;
4756;SDS011;2392;52.578;13.426;2023-12-07T09:28:04;44.13;;;20.43;;
4756;SDS011;2392;52.578;13.426;2023-12-07T09:30:30;46.60;;;19.80;;
4756;SDS011;2392;52.578;13.426;2023-12-07T09:32:58;48.47;;;20.67;;
4756;SDS011;2392;52.578;13.426;2023-12-07T09:35:27;41.47;;;19.23;;
4756;SDS011;2392;52.578;13.426;2023-12-07T09:37:55;50.57;;;21.70;;
4756;SDS011;2392;52.578;13.426;2023-12-07T09:40:22;45.03;;;19.60;;
4756;SDS011;2392;52.578;13.426;2023-12-07T09:42:50;43.70;;;19.57;;
4756;SDS011;2392;52.578;13.426;2023-12-07T09:45:18;47.27;;;20.40;;
4756;SDS011;2392;52.578;13.426;2023-12-07T09:47:46;46.93;;;21.13;;
4756;SDS011;2392;52.578;13.426;2023-12-07T09:50:14;46.57;;;21.27;;
4756;SDS011;2392;52.578;13.426;2023-12-07T09:52:43;44.37;;;19.37;;
4756;SDS011;2392;52.578;13.426;2023-12-07T09:55:11;45.47;;;20.17;;
4756;SDS011;2392;52.578;13.426;2023-12-07T09:57:39;50.97;;;21.00;;
4756;SDS011;2392;52.578;13.426;2023-12-07T10:00:06;43.93;;;19.77;;
4756;SDS011;2392;52.578;13.426;2023-12-07T10:02:39;44.10;;;19.50;;
4756;SDS011;2392;52.578;13.426;2023-12-07T10:05:08;48.47;;;22.07;;
4756;SDS011;2392;52.578;13.426;2023-12-07T10:07:38;50.23;;;20.00;;
4756;SDS011;2392;52.578;13.426;2023-12-07T10:10:07;42.30;;;19.10;;
4756;SDS011;2392;52.578;13.426;2023-12-07T10:12:44;39.17;;;17.83;;
4756;SDS011;2392;52.578;13.426;2023-12-07T10:15:12;37.30;;;16.20;;
4756;SDS011;2392;52.578;13.426;2023-12-07T10:17:45;44.57;;;17.30;;
4756;SDS011;2392;52.578;13.426;2023-12-07T10:20:13;45.80;;;17.73;;
4756;SDS011;2392;52.578;13.426;2023-12-07T10:22:41;39.43;;;16.97;;
4756;SDS011;2392;52.578;13.426;2023-12-07T10:25:09;37.30;;;15.80;;
4756;SDS011;2392;52.578;13.426;2023-12-07T10:27:38;39.30;;;16.57;;
4756;SDS011;2392;52.578;13.426;2023-12-07T10:30:08;38.03;;;16.20;;
4756;SDS011;2392;52.578;13.426;2023-12-07T10:32:36;32.97;;;14.53;;
4756;SDS011;2392;52.578;13.426;2023-12-07T10:35:05;35.27;;;15.17;;
4756;SDS011;2392;52.578;13.426;2023-12-07T10:37:34;35.80;;;14.60;;
4756;SDS011;2392;52.578;13.426;2023-12-07T10:40:01;39.10;;;16.73;;
4756;SDS011;2392;52.578;13.426;2023-12-07T10:42:32;37.67;;;15.10;;
4756;SDS011;2392;52.578;13.426;2023-12-07T10:45:03;37.70;;;16.60;;
4756;SDS011;2392;52.578;13.426;2023-12-07T10:47:36;39.23;;;16.37;;
4756;SDS011;2392;52.578;13.426;2023-12-07T10:50:05;37.50;;;16.07;;
4756;SDS011;2392;52.578;13.426;2023-12-07T10:52:37;36.40;;;15.77;;
4756;SDS011;2392;52.578;13.426;2023-12-07T10:55:12;39.30;;;16.77;;
4756;SDS011;2392;52.578;13.426;2023-12-07T10:57:42;37.70;;;15.57;;
4756;SDS011;2392;52.578;13.426;2023-12-07T11:00:13;41.17;;;17.60;;
4756;SDS011;2392;52.578;13.426;2023-12-07T11:02:40;42.27;;;17.57;;
4756;SDS011;2392;52.578;13.426;2023-12-07T11:05:08;39.97;;;17.30;;
4756;SDS011;2392;52.578;13.426;2023-12-07T11:07:38;38.83;;;18.73;;
4756;SDS011;2392;52.578;13.426;2023-12-07T11:10:12;40.07;;;17.20;;
4756;SDS011;2392;52.578;13.426;2023-12-07T11:12:47;42.43;;;17.20;;
4756;SDS011;2392;52.578;13.426;2023-12-07T11:15:20;40.23;;;17.83;;
4756;SDS011;2392;52.578;13.426;2023-12-07T11:17:47;44.13;;;18.10;;
4756;SDS011;2392;52.578;13.426;2023-12-07T11:20:18;42.87;;;18.53;;
4756;SDS011;2392;52.578;13.426;2023-12-07T11:22:46;45.63;;;17.03;;
4756;SDS011;2392;52.578;13.426;2023-12-07T11:25:14;44.73;;;19.47;;
4756;SDS011;2392;52.578;13.426;2023-12-07T11:27:43;40.90;;;17.90;;
4756;SDS011;2392;52.578;13.426;2023-12-07T11:30:12;43.97;;;20.20;;
4756;SDS011;2392;52.578;13.426;2023-12-07T11:32:41;45.83;;;20.20;;
4756;SDS011;2392;52.578;13.426;2023-12-07T11:35:11;40.77;;;17.53;;
4756;SDS011;2392;52.578;13.426;2023-12-07T11:40:28;49.10;;;18.07;;
4756;SDS011;2392;52.578;13.426;2023-12-07T11:42:56;43.47;;;18.20;;
4756;SDS011;2392;52.578;13.426;2023-12-07T11:45:35;43.83;;;19.10;;
4756;SDS011;2392;52.578;13.426;2023-12-07T11:48:07;45.80;;;17.30;;
4756;SDS011;2392;52.578;13.426;2023-12-07T11:50:35;39.30;;;16.33;;
4756;SDS011;2392;52.578;13.426;2023-12-07T11:53:02;41.00;;;17.50;;
4756;SDS011;2392;52.578;13.426;2023-12-07T11:55:28;46.53;;;17.70;;
4756;SDS011;2392;52.578;13.426;2023-12-07T11:57:58;43.27;;;17.20;;
4756;SDS011;2392;52.578;13.426;2023-12-07T12:00:24;38.97;;;16.63;;
4756;SDS011;2392;52.578;13.426;2023-12-07T12:02:52;42.63;;;17.70;;
4756;SDS011;2392;52.578;13.426;2023-12-07T12:05:20;41.40;;;18.57;;
4756;SDS011;2392;52.578;13.426;2023-12-07T12:07:46;43.87;;;18.63;;
4756;SDS011;2392;52.578;13.426;2023-12-07T12:10:13;42.77;;;17.03;;
4756;SDS011;2392;52.578;13.426;2023-12-07T12:12:40;46.10;;;17.87;;
4756;SDS011;2392;52.578;13.426;2023-12-07T12:15:06;43.87;;;17.60;;
4756;SDS011;2392;52.578;13.426;2023-12-07T12:17:34;44.83;;;18.20;;
4756;SDS011;2392;52.578;13.426;2023-12-07T12:20:01;44.10;;;17.97;;
4756;SDS011;2392;52.578;13.426;2023-12-07T12:22:31;42.90;;;17.73;;
4756;SDS011;2392;52.578;13.426;2023-12-07T12:24:57;41.70;;;18.87;;
4756;SDS011;2392;52.578;13.426;2023-12-07T12:27:24;40.97;;;19.70;;
4756;SDS011;2392;52.578;13.426;2023-12-07T12:29:51;44.20;;;18.60;;
4756;SDS011;2392;52.578;13.426;2023-12-07T12:32:18;42.00;;;18.27;;
4756;SDS011;2392;52.578;13.426;2023-12-07T12:34:50;40.50;;;17.33;;
4756;SDS011;2392;52.578;13.426;2023-12-07T12:37:17;40.40;;;17.63;;
4756;SDS011;2392;52.578;13.426;2023-12-07T12:39:45;51.87;;;22.27;;
4756;SDS011;2392;52.578;13.426;2023-12-07T12:42:12;43.47;;;18.50;;
4756;SDS011;2392;52.578;13.426;2023-12-07T12:44:38;47.70;;;19.80;;
4756;SDS011;2392;52.578;13.426;2023-12-07T12:47:05;45.40;;;19.90;;
4756;SDS011;2392;52.578;13.426;2023-12-07T12:49:34;43.77;;;18.87;;
4756;SDS011;2392;52.578;13.426;2023-12-07T12:52:02;42.87;;;18.80;;
4756;SDS011;2392;52.578;13.426;2023-12-07T12:54:30;40.73;;;18.77;;
4756;SDS011;2392;52.578;13.426;2023-12-07T12:56:58;43.90;;;19.17;;
4756;SDS011;2392;52.578;13.426;2023-12-07T12:59:25;50.53;;;21.50;;
4756;SDS011;2392;52.578;13.426;2023-12-07T13:01:52;43.00;;;19.43;;
4756;SDS011;2392;52.578;13.426;2023-12-07T13:04:19;45.63;;;19.10;;
4756;SDS011;2392;52.578;13.426;2023-12-07T13:06:45;44.20;;;19.90;;
4756;SDS011;2392;52.578;13.426;2023-12-07T13:09:13;47.17;;;21.47;;
4756;SDS011;2392;52.578;13.426;2023-12-07T13:11:41;44.30;;;21.03;;
4756;SDS011;2392;52.578;13.426;2023-12-07T13:14:09;48.60;;;21.03;;
4756;SDS011;2392;52.578;13.426;2023-12-07T13:16:36;47.13;;;19.73;;
4756;SDS011;2392;52.578;13.426;2023-12-07T13:19:03;44.73;;;19.27;;
4756;SDS011;2392;52.578;13.426;2023-12-07T13:21:30;47.70;;;20.10;;
4756;SDS011;2392;52.578;13.426;2023-12-07T13:23:57;44.67;;;19.37;;
4756;SDS011;2392;52.578;13.426;2023-12-07T13:26:23;44.87;;;21.13;;
4756;SDS011;2392;52.578;13.426;2023-12-07T13:28:50;44.03;;;20.67;;
4756;SDS011;2392;52.578;13.426;2023-12-07T13:31:19;48.73;;;20.87;;
4756;SDS011;2392;52.578;13.426;2023-12-07T13:33:45;52.77;;;21.33;;
4756;SDS011;2392;52.578;13.426;2023-12-07T13:36:12;48.77;;;22.07;;
4756;SDS011;2392;52.578;13.426;2023-12-07T13:38:43;51.13;;;20.80;;
4756;SDS011;2392;52.578;13.426;2023-12-07T13:41:09;54.13;;;23.07;;
4756;SDS011;2392;52.578;13.426;2023-12-07T13:43:36;50.57;;;21.73;;
4756;SDS011;2392;52.578;13.426;2023-12-07T13:46:02;52.33;;;22.33;;
4756;SDS011;2392;52.578;13.426;2023-12-07T13:48:31;51.83;;;21.40;;
4756;SDS011;2392;52.578;13.426;2023-12-07T13:50:57;55.40;;;23.37;;
4756;SDS011;2392;52.578;13.426;2023-12-07T13:53:24;51.57;;;21.77;;
4756;SDS011;2392;52.578;13.426;2023-12-07T13:55:51;49.77;;;21.00;;
4756;SDS011;2392;52.578;13.426;2023-12-07T13:58:17;56.53;;;23.07;;
4756;SDS011;2392;52.578;13.426;2023-12-07T14:00:44;50.77;;;21.90;;
4756;SDS011;2392;52.578;13.426;2023-12-07T14:03:11;53.07;;;23.00;;
4756;SDS011;2392;52.578;13.426;2023-12-07T14:05:39;56.17;;;24.97;;
4756;SDS011;2392;52.578;13.426;2023-12-07T14:08:06;65.13;;;25.57;;
4756;SDS011;2392;52.578;13.426;2023-12-07T14:10:33;58.23;;;24.97;;
4756;SDS011;2392;52.578;13.426;2023-12-07T14:13:00;56.03;;;23.93;;
4756;SDS011;2392;52.578;13.426;2023-12-07T14:15:27;56.27;;;23.80;;
4756;SDS011;2392;52.578;13.426;2023-12-07T14:17:54;54.80;;;25.73;;
4756;SDS011;2392;52.578;13.426;2023-12-07T14:20:21;58.53;;;25.87;;
4756;SDS011;2392;52.578;13.426;2023-12-07T14:22:50;61.50;;;25.87;;
4756;SDS011;2392;52.578;13.426;2023-12-07T14:25:17;57.80;;;25.97;;
4756;SDS011;2392;52.578;13.426;2023-12-07T14:27:44;57.10;;;24.37;;
4756;SDS011;2392;52.578;13.426;2023-12-07T14:30:11;57.27;;;24.87;;
4756;SDS011;2392;52.578;13.426;2023-12-07T14:32:38;57.00;;;25.87;;
4756;SDS011;2392;52.578;13.426;2023-12-07T14:35:06;58.30;;;26.47;;
4756;SDS011;2392;52.578;13.426;2023-12-07T14:37:33;63.30;;;27.47;;